YM Uniform — A8OR8 — position and weather

sailwx.info

Track history (hours):
 
Tides and Currents Weather Stations Pressure Air Temp Water Temp Dewpoint Dewpoint Depression Visibility Wind Speed Wind Dir Waves Ship Positions

YM Uniform

Last reported at 2018-Mar-31 23:58 UTC. Time now 2018-Apr-21 19:23 UTC.
Position N 01°12' E 103°32'.
Warning: this ship's position is 20 days out of date.

Length 333 m; draft 12 m.

Type: Ship. MMSI: 636013693.

Date/timePositionNaut miles runAvg speedWind from/ knotsBaromVisibWave heightAir tempDewpointWater temp
2018-Mar-31 23:58N 01°12' E 103°32'816.1
2018-Mar-31 23:28N 01°11' E 103°40'714.3
2018-Mar-31 23:00N 01°09' E 103°46'713.4
2018-Mar-31 22:31N 01°12' E 103°52'4 7.0
2018-Mar-31 22:00N 01°16' E 103°51'0 0.4
2018-Mar-31 20:57N 01°16' E 103°50'0 0.0
2018-Mar-31 20:24N 01°16' E 103°50'0 0.0
2018-Mar-31 20:00N 01°16' E 103°50'0 0.0
2018-Mar-31 19:24N 01°16' E 103°50'0 0.0
2018-Mar-31 17:57N 01°16' E 103°50'0 0.0
2018-Mar-31 16:45N 01°16' E 103°50'0 0.0
2018-Mar-31 14:33N 01°16' E 103°50'0 0.0
2018-Mar-31 14:18N 01°16' E 103°50'0 0.0
2018-Mar-31 13:57N 01°16' E 103°50'0 0.0
2018-Mar-31 11:51N 01°16' E 103°50'0 0.0
2018-Mar-31 11:01N 01°16' E 103°50'0 0.0
2018-Mar-31 10:27N 01°16' E 103°50'0 0.0
2018-Mar-31 09:48N 01°16' E 103°50'0 0.0
2018-Mar-31 09:30N 01°16' E 103°50'0 0.0
2018-Mar-31 08:21N 01°16' E 103°50'0 0.9
2018-Mar-31 08:00N 01°16' E 103°51'1 1.8
2018-Mar-31 07:30N 01°15' E 103°52'3 5.7
2018-Mar-31 07:00N 01°14' E 103°54'3 5.7
2018-Mar-31 06:30N 01°15' E 103°56'610.0
2018-Mar-31 05:53N 01°16' E 104°03'511.5
2018-Mar-31 05:27N 01°16' E 104°08'  
2018-Mar-25 21:29N 23°20' E 117°31'815.9
2018-Mar-25 21:01N 23°25' E 117°38'815.8
2018-Mar-25 20:31N 23°29' E 117°44'815.7
2018-Mar-25 20:01N 23°35' E 117°51'815.8
2018-Mar-25 19:30N 23°40' E 117°57'815.7
2018-Mar-25 19:00N 23°45' E 118°04'815.6
2018-Mar-25 18:29N 23°50' E 118°11'815.7
2018-Mar-25 18:00N 23°55' E 118°17'915.7
2018-Mar-25 17:26N 24°01' E 118°24'715.7
2018-Mar-25 17:00N 24°05' E 118°30'816.1
2018-Mar-25 16:30N 24°10' E 118°37'816.1
2018-Mar-25 16:00N 24°16' E 118°44'816.2
2018-Mar-25 15:30N 24°20' E 118°51'816.4
2018-Mar-25 15:00N 24°26' E 118°58'1015.9
2018-Mar-25 14:20N 24°32' E 119°07'616.7
2018-Mar-25 13:59N 24°36' E 119°12'  
2018-Mar-22 14:36N 30°34' E 122°11'315.8
2018-Mar-22 14:27N 30°35' E 122°09'613.0
2018-Mar-22 14:00N 30°37' E 122°03'2 4.5
2018-Mar-22 13:28N 30°39' E 122°01'0 0.0
2018-Mar-22 12:13N 30°39' E 122°01'0 0.0
2018-Mar-22 11:58N 30°39' E 122°01'0 0.0
2018-Mar-22 11:25N 30°39' E 122°01'0 0.0
2018-Mar-22 10:55N 30°39' E 122°01'0 0.0
2018-Mar-22 10:28N 30°39' E 122°01'0 0.0
2018-Mar-22 09:55N 30°39' E 122°01'0 0.0
2018-Mar-22 09:25N 30°39' E 122°01'0 0.0
2018-Mar-22 08:58N 30°39' E 122°01'0 0.0
2018-Mar-22 08:25N 30°39' E 122°01'0 0.0
2018-Mar-22 07:58N 30°39' E 122°01'0 0.0
2018-Mar-22 07:28N 30°39' E 122°01'0 0.0
2018-Mar-22 06:13N 30°39' E 122°01'0 0.0
2018-Mar-22 05:58N 30°39' E 122°01'0 0.0
2018-Mar-22 05:16N 30°39' E 122°01'0 0.0
2018-Mar-22 04:55N 30°39' E 122°01'0 0.0
2018-Mar-22 04:25N 30°39' E 122°01'0 0.0
2018-Mar-22 03:37N 30°39' E 122°01'0 0.0
2018-Mar-22 03:19N 30°39' E 122°01'0 0.0
2018-Mar-22 02:58N 30°39' E 122°01'0 0.0
2018-Mar-22 02:25N 30°39' E 122°01'0 0.0
2018-Mar-22 01:52N 30°39' E 122°01'0 0.0
2018-Mar-22 01:28N 30°39' E 122°01'0 0.0
2018-Mar-22 00:58N 30°39' E 122°01'0 0.2
2018-Mar-22 00:28N 30°39' E 122°01'2 5.3
2018-Mar-22 00:00N 30°37' E 122°03'  
Track history (hours):
 
Tides and Currents Weather Stations Pressure Air Temp Water Temp Dewpoint Dewpoint Depression Visibility Wind Speed Wind Dir Waves Ship Positions

YM Uniform

Last reported at 2018-Mar-31 23:58 UTC. Time now 2018-Apr-21 19:23 UTC.
Position N 01°12' E 103°32'.
Warning: this ship's position is 20 days out of date.

Length 333 m; draft 12 m.

Type: Ship. MMSI: 636013693.

Date/timePositionNaut miles runAvg speedWind from/ knotsBaromVisibWave heightAir tempDewpointWater temp
2018-Mar-31 23:58N 01°12' E 103°32'816.1
2018-Mar-31 23:28N 01°11' E 103°40'714.3
2018-Mar-31 23:00N 01°09' E 103°46'713.4
2018-Mar-31 22:31N 01°12' E 103°52'4 7.0
2018-Mar-31 22:00N 01°16' E 103°51'0 0.4
2018-Mar-31 20:57N 01°16' E 103°50'0 0.0
2018-Mar-31 20:24N 01°16' E 103°50'0 0.0
2018-Mar-31 20:00N 01°16' E 103°50'0 0.0
2018-Mar-31 19:24N 01°16' E 103°50'0 0.0
2018-Mar-31 17:57N 01°16' E 103°50'0 0.0
2018-Mar-31 16:45N 01°16' E 103°50'0 0.0
2018-Mar-31 14:33N 01°16' E 103°50'0 0.0
2018-Mar-31 14:18N 01°16' E 103°50'0 0.0
2018-Mar-31 13:57N 01°16' E 103°50'0 0.0
2018-Mar-31 11:51N 01°16' E 103°50'0 0.0
2018-Mar-31 11:01N 01°16' E 103°50'0 0.0
2018-Mar-31 10:27N 01°16' E 103°50'0 0.0
2018-Mar-31 09:48N 01°16' E 103°50'0 0.0
2018-Mar-31 09:30N 01°16' E 103°50'0 0.0
2018-Mar-31 08:21N 01°16' E 103°50'0 0.9
2018-Mar-31 08:00N 01°16' E 103°51'1 1.8
2018-Mar-31 07:30N 01°15' E 103°52'3 5.7
2018-Mar-31 07:00N 01°14' E 103°54'3 5.7
2018-Mar-31 06:30N 01°15' E 103°56'610.0
2018-Mar-31 05:53N 01°16' E 104°03'511.5
2018-Mar-31 05:27N 01°16' E 104°08'  
2018-Mar-25 21:29N 23°20' E 117°31'815.9
2018-Mar-25 21:01N 23°25' E 117°38'815.8
2018-Mar-25 20:31N 23°29' E 117°44'815.7
2018-Mar-25 20:01N 23°35' E 117°51'815.8
2018-Mar-25 19:30N 23°40' E 117°57'815.7
2018-Mar-25 19:00N 23°45' E 118°04'815.6
2018-Mar-25 18:29N 23°50' E 118°11'815.7
2018-Mar-25 18:00N 23°55' E 118°17'915.7
2018-Mar-25 17:26N 24°01' E 118°24'715.7
2018-Mar-25 17:00N 24°05' E 118°30'816.1
2018-Mar-25 16:30N 24°10' E 118°37'816.1
2018-Mar-25 16:00N 24°16' E 118°44'816.2
2018-Mar-25 15:30N 24°20' E 118°51'816.4
2018-Mar-25 15:00N 24°26' E 118°58'1015.9
2018-Mar-25 14:20N 24°32' E 119°07'616.7
2018-Mar-25 13:59N 24°36' E 119°12'  
2018-Mar-22 14:36N 30°34' E 122°11'315.8
2018-Mar-22 14:27N 30°35' E 122°09'613.0
2018-Mar-22 14:00N 30°37' E 122°03'2 4.5
2018-Mar-22 13:28N 30°39' E 122°01'0 0.0
2018-Mar-22 12:13N 30°39' E 122°01'0 0.0
2018-Mar-22 11:58N 30°39' E 122°01'0 0.0
2018-Mar-22 11:25N 30°39' E 122°01'0 0.0
2018-Mar-22 10:55N 30°39' E 122°01'0 0.0
2018-Mar-22 10:28N 30°39' E 122°01'0 0.0
2018-Mar-22 09:55N 30°39' E 122°01'0 0.0
2018-Mar-22 09:25N 30°39' E 122°01'0 0.0
2018-Mar-22 08:58N 30°39' E 122°01'0 0.0
2018-Mar-22 08:25N 30°39' E 122°01'0 0.0
2018-Mar-22 07:58N 30°39' E 122°01'0 0.0
2018-Mar-22 07:28N 30°39' E 122°01'0 0.0
2018-Mar-22 06:13N 30°39' E 122°01'0 0.0
2018-Mar-22 05:58N 30°39' E 122°01'0 0.0
2018-Mar-22 05:16N 30°39' E 122°01'0 0.0
2018-Mar-22 04:55N 30°39' E 122°01'0 0.0
2018-Mar-22 04:25N 30°39' E 122°01'0 0.0
2018-Mar-22 03:37N 30°39' E 122°01'0 0.0
2018-Mar-22 03:19N 30°39' E 122°01'0 0.0
2018-Mar-22 02:58N 30°39' E 122°01'0 0.0
2018-Mar-22 02:25N 30°39' E 122°01'0 0.0
2018-Mar-22 01:52N 30°39' E 122°01'0 0.0
2018-Mar-22 01:28N 30°39' E 122°01'0 0.0
2018-Mar-22 00:58N 30°39' E 122°01'0 0.2
2018-Mar-22 00:28N 30°39' E 122°01'2 5.3
2018-Mar-22 00:00N 30°37' E 122°03'  

Dump ship's entire track history